Time;durP1;ratioP1;P1;durP2;ratioP2;P2;SDS_P1;SDS_P2;PMS_P1;PMS_P2;Temp;Humidity;BMP_temperature;BMP_pressure;BME280_temperature;BME280_humidity;BME280_pressure;Samples;Min_cycle;Max_cycle;Signal;HPM_P1;HPM_P2
2021/04/01 00:00:17;;;;;;;8.00;5.72;;;358.40;2329.60;;;;;;4994247;28;20070;-71
2021/04/01 00:02:55;;;;;;;10.02;5.97;;;358.40;2329.60;;;;;;5008890;28;20080;-70
2021/04/01 00:05:24;;;;;;;8.27;5.75;;;358.40;2329.60;;;;;;5012496;28;20037;-82
2021/04/01 00:07:50;;;;;;;9.32;5.88;;;358.50;2329.60;;;;;;5001913;28;20468;-72
2021/04/01 00:10:19;;;;;;;9.10;6.00;;;358.60;2329.60;;;;;;5003609;28;20084;-70
2021/04/01 00:12:45;;;;;;;7.50;5.50;;;358.60;2329.60;;;;;;5011450;28;20018;-74
2021/04/01 00:15:12;;;;;;;9.85;5.82;;;358.60;2329.60;;;;;;5012629;28;20049;-76
2021/04/01 00:17:40;;;;;;;14.75;6.18;;;358.60;2329.60;;;;;;5008322;28;20045;-73
2021/04/01 00:20:09;;;;;;;9.02;5.97;;;358.60;2329.60;;;;;;4982935;28;20049;-72
2021/04/01 00:22:35;;;;;;;7.55;5.68;;;358.60;2329.60;;;;;;5005227;28;20036;-74
2021/04/01 00:25:01;;;;;;;7.68;5.45;;;358.60;2329.60;;;;;;5000595;28;20022;-71
2021/04/01 00:27:27;;;;;;;8.50;5.40;;;358.60;2329.60;;;;;;5004423;28;20096;-89
2021/04/01 00:29:53;;;;;;;7.95;5.72;;;358.60;2329.60;;;;;;4992694;28;20026;-71
2021/04/01 00:32:18;;;;;;;9.68;5.80;;;358.50;2329.60;;;;;;4996002;28;20474;-71
2021/04/01 00:34:44;;;;;;;10.27;5.60;;;358.50;2329.60;;;;;;4998726;28;20039;-82
2021/04/01 00:37:10;;;;;;;11.23;5.32;;;358.50;2329.60;;;;;;4982082;28;20060;-82
2021/04/01 00:39:35;;;;;;;8.77;5.40;;;358.50;2329.60;;;;;;5012084;28;20024;-76
2021/04/01 00:42:03;;;;;;;8.55;5.45;;;358.50;2329.60;;;;;;4996290;28;20019;-77
2021/04/01 00:44:29;;;;;;;6.38;5.30;;;358.50;2329.60;;;;;;4993408;28;20553;-71
2021/04/01 00:46:55;;;;;;;10.30;5.47;;;358.40;2329.60;;;;;;5005578;28;20108;-82
2021/04/01 00:49:21;;;;;;;8.80;5.22;;;358.40;2329.60;;;;;;5009780;28;20486;-71
2021/04/01 00:51:46;;;;;;;8.57;5.80;;;358.40;2329.60;;;;;;5001724;28;20060;-76
2021/04/01 00:54:12;;;;;;;10.68;5.55;;;358.50;2329.60;;;;;;4999608;28;20109;-72
2021/04/01 00:56:39;;;;;;;9.02;5.03;;;358.40;2329.60;;;;;;5001272;28;20037;-71
2021/04/01 00:59:06;;;;;;;7.65;5.43;;;359.30;2329.60;;;;;;5010790;28;20068;-73
2021/04/01 01:04:17;;;;;;;9.45;5.18;;;358.50;2329.60;;;;;;5011201;28;20077;-73
2021/04/01 01:06:43;;;;;;;8.68;4.80;;;358.40;2329.60;;;;;;5001176;28;20053;-72
2021/04/01 01:09:10;;;;;;;11.35;4.95;;;358.40;2329.60;;;;;;4999048;28;20026;-85
2021/04/01 01:11:37;;;;;;;10.45;5.60;;;358.40;2329.60;;;;;;5013078;28;20053;-70
2021/04/01 01:14:04;;;;;;;8.05;5.10;;;333.70;2329.60;;;;;;5016049;28;20041;-80
2021/04/01 01:16:32;;;;;;;10.15;5.63;;;333.70;2329.60;;;;;;4995008;28;20430;-72
2021/04/01 01:18:58;;;;;;;6.97;5.43;;;333.70;2329.60;;;;;;5009156;28;20030;-69
2021/04/01 01:21:24;;;;;;;12.65;5.20;;;333.60;2329.60;;;;;;4998570;28;20033;-71
2021/04/01 01:23:51;;;;;;;12.15;5.70;;;333.60;2329.60;;;;;;5023057;28;20106;-80
2021/04/01 01:26:18;;;;;;;10.85;5.88;;;333.60;2329.60;;;;;;4998090;28;20455;-71
2021/04/01 01:28:45;;;;;;;8.95;5.80;;;333.60;2329.60;;;;;;4997553;28;20026;-74
2021/04/01 01:31:12;;;;;;;8.27;5.88;;;333.70;2329.60;;;;;;4992857;28;20077;-72
2021/04/01 01:33:42;;;;;;;10.45;5.80;;;333.50;2329.60;;;;;;5007388;28;20037;-73
2021/04/01 01:36:09;;;;;;;7.28;5.50;;;333.50;2329.60;;;;;;5008477;28;20048;-78
2021/04/01 01:38:35;;;;;;;8.75;5.40;;;333.40;2329.60;;;;;;5008548;28;20037;-74
2021/04/01 01:41:01;;;;;;;8.00;5.40;;;333.50;2329.60;;;;;;5002591;28;20065;-70
2021/04/01 01:43:27;;;;;;;7.75;5.63;;;333.60;2329.60;;;;;;5005659;28;20022;-70
2021/04/01 01:45:53;;;;;;;6.97;5.65;;;333.60;2329.60;;;;;;5006273;28;20037;-71
2021/04/01 01:48:19;;;;;;;9.00;5.50;;;333.60;2329.60;;;;;;4993347;28;20030;-74
2021/04/01 01:50:44;;;;;;;8.00;5.55;;;333.60;2329.60;;;;;;5011809;28;20037;-88
2021/04/01 01:53:10;;;;;;;9.23;5.60;;;333.70;2329.60;;;;;;5011698;28;20034;-71
2021/04/01 01:55:38;;;;;;;9.55;5.63;;;333.70;2329.60;;;;;;5014693;28;20030;-83
2021/04/01 01:58:05;;;;;;;7.35;5.43;;;333.70;2329.60;;;;;;5011754;28;20045;-71
2021/04/01 02:00:42;;;;;;;9.80;5.65;;;333.70;2329.60;;;;;;5010885;28;20038;-71
2021/04/01 02:03:08;;;;;;;6.95;5.22;;;333.70;2329.60;;;;;;5010729;28;20029;-70
2021/04/01 02:05:36;;;;;;;10.52;5.55;;;333.70;2329.60;;;;;;5005894;28;20030;-88
2021/04/01 02:08:03;;;;;;;10.50;5.78;;;333.70;2329.60;;;;;;4992654;28;20031;-71
2021/04/01 02:10:30;;;;;;;6.50;5.35;;;333.70;2329.60;;;;;;4992543;28;20066;-74
2021/04/01 02:12:57;;;;;;;7.90;5.60;;;333.60;2329.60;;;;;;5003815;28;20022;-79
2021/04/01 02:15:37;;;;;;;7.07;5.30;;;333.60;2329.60;;;;;;4999351;28;20117;-74
2021/04/01 02:18:13;;;;;;;8.05;5.20;;;333.40;2329.60;;;;;;5009711;28;20057;-71
2021/04/01 02:20:45;;;;;;;13.98;5.50;;;333.50;2329.60;;;;;;4997224;28;20029;-73
2021/04/01 02:23:16;;;;;;;8.73;5.63;;;333.40;2329.60;;;;;;5002884;28;20026;-71
2021/04/01 02:25:43;;;;;;;8.18;5.80;;;333.20;2329.60;;;;;;5002619;28;20156;-84
2021/04/01 02:28:09;;;;;;;12.82;5.90;;;333.30;2329.60;;;;;;4998060;28;20034;-71
2021/04/01 02:30:38;;;;;;;7.47;5.90;;;333.20;2329.60;;;;;;5014228;28;20053;-70
2021/04/01 02:33:04;;;;;;;9.32;5.70;;;333.20;2329.60;;;;;;5007721;28;20030;-84
2021/04/01 02:35:31;;;;;;;10.27;5.97;;;333.20;2329.60;;;;;;5012200;28;20439;-73
2021/04/01 02:37:56;;;;;;;8.60;6.00;;;333.20;2329.60;;;;;;5008113;28;20026;-71
2021/04/01 02:40:23;;;;;;;8.35;5.50;;;333.30;2329.60;;;;;;5009022;28;20022;-87
2021/04/01 02:42:49;;;;;;;7.28;5.82;;;333.30;2329.60;;;;;;4990708;28;20018;-86
2021/04/01 02:45:16;;;;;;;8.85;5.47;;;333.30;2329.60;;;;;;5010750;28;20033;-71
2021/04/01 02:47:42;;;;;;;8.10;5.40;;;333.20;2329.60;;;;;;5009326;28;20379;-77
2021/04/01 02:50:09;;;;;;;9.82;6.07;;;333.20;2329.60;;;;;;5001112;28;20535;-74
2021/04/01 02:52:35;;;;;;;8.95;5.70;;;333.20;2329.60;;;;;;5007060;28;20044;-71
2021/04/01 02:55:02;;;;;;;9.95;5.13;;;333.30;2329.60;;;;;;5008098;28;20120;-71
2021/04/01 02:57:28;;;;;;;8.70;5.32;;;333.30;2329.60;;;;;;4987390;28;20117;-71
2021/04/01 02:59:54;;;;;;;7.55;5.38;;;333.30;2329.60;;;;;;5000947;28;20481;-72
2021/04/01 03:02:22;;;;;;;9.30;5.63;;;333.30;2329.60;;;;;;5002922;28;20135;-72
2021/04/01 03:04:47;;;;;;;7.40;5.07;;;333.20;2329.60;;;;;;5001123;28;20030;-71
2021/04/01 03:07:13;;;;;;;7.75;5.60;;;333.20;2329.60;;;;;;5000913;28;20416;-74
2021/04/01 03:09:39;;;;;;;7.60;5.50;;;333.20;2329.60;;;;;;5016699;28;20033;-71
2021/04/01 03:12:05;;;;;;;8.18;5.53;;;333.10;2329.60;;;;;;5007090;28;20388;-71
2021/04/01 03:14:32;;;;;;;10.02;6.07;;;333.20;2329.60;;;;;;5012956;28;20056;-78
2021/04/01 03:16:57;;;;;;;7.40;5.53;;;333.20;2329.60;;;;;;4994955;28;20022;-74
2021/04/01 03:19:23;;;;;;;7.95;5.60;;;333.20;2329.60;;;;;;5003432;28;20029;-71
2021/04/01 03:21:49;;;;;;;9.70;5.85;;;333.10;2329.60;;;;;;4999882;28;20022;-76
2021/04/01 03:24:16;;;;;;;7.80;5.63;;;333.10;2329.60;;;;;;5011968;28;20391;-75
2021/04/01 03:26:42;;;;;;;9.65;5.47;;;333.10;2329.60;;;;;;5014016;28;20026;-73
2021/04/01 03:29:09;;;;;;;11.05;5.70;;;333.10;2329.60;;;;;;5014024;28;20036;-71
2021/04/01 03:31:35;;;;;;;8.18;5.63;;;333.10;2329.60;;;;;;5011676;28;20088;-71
2021/04/01 03:34:01;;;;;;;9.18;5.80;;;333.10;2329.60;;;;;;4994651;28;20427;-74
2021/04/01 03:36:27;;;;;;;12.35;6.47;;;333.00;2329.60;;;;;;4994413;28;20378;-71
2021/04/01 03:38:53;;;;;;;7.65;5.90;;;333.00;2329.60;;;;;;5010970;28;20101;-76
2021/04/01 03:41:18;;;;;;;9.50;6.10;;;332.90;2329.60;;;;;;5013760;28;20057;-86
2021/04/01 03:43:44;;;;;;;7.15;5.82;;;332.90;2329.60;;;;;;5009019;28;20503;-84
2021/04/01 03:46:12;;;;;;;11.02;6.38;;;333.00;2329.60;;;;;;5005896;28;20030;-72
2021/04/01 03:48:38;;;;;;;11.88;6.93;;;332.90;2329.60;;;;;;4998765;28;20027;-74
2021/04/01 03:51:04;;;;;;;9.88;5.80;;;332.90;2329.60;;;;;;5012044;28;20040;-71
2021/04/01 03:53:30;;;;;;;8.25;5.90;;;332.90;2329.60;;;;;;5000537;28;20018;-71
2021/04/01 03:55:55;;;;;;;10.27;6.10;;;332.90;2329.60;;;;;;5007751;28;20029;-87
2021/04/01 03:58:48;;;;;;;8.90;5.60;;;332.90;2329.60;;;;;;4984821;28;20046;-74
2021/04/01 04:14:33;;;;;;;9.82;6.35;;;333.00;2329.60;;;;;;4931251;29;20035;-71
2021/04/01 04:16:59;;;;;;;10.55;6.07;;;;;;;;;;4931860;29;20031;-71
2021/04/01 04:19:25;;;;;;;9.27;6.97;;;;;;;;;;4932042;29;20040;-71
2021/04/01 04:21:51;;;;;;;9.93;6.60;;;333.00;2329.60;;;;;;4935258;29;20067;-71
2021/04/01 04:24:16;;;;;;;12.30;6.85;;;332.80;2329.60;;;;;;4933260;29;20048;-71
2021/04/01 04:26:42;;;;;;;13.90;7.65;;;332.80;2329.60;;;;;;4933393;29;20520;-76
2021/04/01 04:29:08;;;;;;;9.05;6.70;;;332.80;2329.60;;;;;;4933887;29;20039;-74
2021/04/01 04:31:34;;;;;;;14.27;7.85;;;308.00;2304.00;;;;;;4932914;29;20024;-71
2021/04/01 04:33:59;;;;;;;11.70;6.88;;;332.80;2329.60;;;;;;4932723;29;20091;-73
2021/04/01 04:36:25;;;;;;;9.50;6.82;;;332.80;2329.60;;;;;;4936140;29;20047;-71
2021/04/01 04:38:51;;;;;;;10.30;6.80;;;332.80;2329.60;;;;;;4933295;29;20028;-71
2021/04/01 04:41:17;;;;;;;10.77;6.70;;;332.90;2329.60;;;;;;4929332;29;20422;-70
2021/04/01 04:43:43;;;;;;;9.77;6.53;;;332.90;2329.60;;;;;;4929566;28;20051;-71
2021/04/01 04:46:09;;;;;;;11.05;7.07;;;333.00;2329.60;;;;;;4933064;29;20035;-72
2021/04/01 04:48:34;;;;;;;16.15;7.35;;;333.00;2329.60;;;;;;4932955;29;20059;-80
2021/04/01 04:51:00;;;;;;;11.77;6.78;;;333.10;2329.60;;;;;;4983123;28;20076;-72
2021/04/01 04:53:26;;;;;;;15.10;6.70;;;333.20;2329.60;;;;;;5009415;28;20022;-75
2021/04/01 05:06:03;;;;;;;17.35;6.30;;;358.80;2329.60;;;;;;5010540;28;20505;-73
2021/04/01 05:08:29;;;;;;;15.60;6.53;;;358.90;2329.60;;;;;;4994259;28;20030;-73
2021/04/01 05:10:55;;;;;;;19.95;7.88;;;359.20;2329.60;;;;;;5012003;28;20025;-73
2021/04/01 05:13:21;;;;;;;16.83;7.82;;;359.30;2329.60;;;;;;4997778;28;20081;-75
2021/04/01 05:15:50;;;;;;;14.68;8.50;;;384.10;2329.60;;;;;;5012073;28;20135;-74
2021/04/01 05:20:53;;;;;;;21.52;13.27;;;384.00;2304.00;;;;;;5012022;28;20034;-82
2021/04/01 05:25:48;;;;;;;33.20;11.57;;;384.20;2304.00;;;;;;5012174;28;20018;-74
2021/04/01 05:30:45;;;;;;;32.55;10.38;;;384.60;2227.20;;;;;;5011142;28;20037;-72
2021/04/01 05:33:48;;;;;;;15.27;8.10;;;384.90;2201.60;;;;;;5393072;23;20029;31
2021/04/01 05:36:23;;;;;;;13.80;7.93;;;409.70;2176.00;;;;;;4893062;29;19927;-74
2021/04/01 05:38:51;;;;;;;15.13;7.43;;;410.00;2150.40;;;;;;4911870;29;20028;-72
2021/04/01 05:41:19;;;;;;;15.65;7.57;;;410.10;2150.40;;;;;;4914819;29;20024;-76
2021/04/01 05:43:50;;;;;;;16.83;7.20;;;410.40;2150.40;;;;;;4912043;29;20071;-80
2021/04/01 05:46:22;;;;;;;21.38;7.82;;;435.40;2150.40;;;;;;4908978;29;20028;-78
2021/04/01 05:56:59;;;;;;;33.22;8.90;;;486.80;1894.40;;;;;;4910320;29;20064;-71
2021/04/01 06:02:44;;;;;;;32.85;11.55;;;537.70;1792.00;;;;;;4867740;29;20566;-72
2021/04/01 06:05:16;;;;;;;41.65;13.98;;;563.70;1689.60;;;;;;4879056;29;20041;-75
2021/04/01 06:07:44;;;;;;;45.53;14.35;;;589.60;1561.60;;;;;;4879431;29;20097;-78
2021/04/01 06:10:14;;;;;;;41.67;14.50;;;589.70;1510.40;;;;;;4877125;29;20124;-69
2021/04/01 06:12:40;;;;;;;34.83;14.57;;;614.40;1459.20;;;;;;4878138;29;20041;-69
2021/04/01 06:15:13;;;;;;;40.40;15.35;;;;;;;;;;4879039;29;20472;-68
2021/04/01 06:17:46;;;;;;;32.40;14.57;;;589.70;1382.40;;;;;;4879105;29;20055;-72
2021/04/01 06:20:13;;;;;;;39.85;22.77;;;614.80;1382.40;;;;;;4879127;29;20133;-79
2021/04/01 06:22:41;;;;;;;50.15;41.90;;;615.20;1305.60;;;;;;4877946;29;20025;-68
2021/04/01 06:25:12;;;;;;;25.20;13.88;;;;;;;;;;4877896;29;20116;-71
2021/04/01 06:27:49;;;;;;;23.23;13.10;;;640.80;1203.20;;;;;;4878567;29;20032;-73
2021/04/01 06:30:27;;;;;;;22.65;13.25;;;615.20;1254.40;;;;;;4878574;29;20510;-80
2021/04/01 06:33:03;;;;;;;26.90;10.30;;;;;;;;;;4878167;29;20025;-72
2021/04/01 06:40:39;;;;;;;19.45;9.93;;;614.50;1228.80;;;;;;4898624;29;20052;-69
2021/04/01 06:43:17;;;;;;;18.55;9.23;;;589.20;1331.20;;;;;;4898369;29;20029;-67
2021/04/01 06:45:53;;;;;;;22.63;9.48;;;588.90;1433.60;;;;;;4898792;29;20056;-69
2021/04/01 06:48:22;;;;;;;18.40;8.98;;;589.00;1382.40;;;;;;4895373;29;20024;-70
2021/04/01 06:50:51;;;;;;;19.90;9.35;;;564.00;1433.60;;;;;;4898920;29;20026;-68
2021/04/01 06:53:29;;;;;;;19.00;9.13;;;563.70;1561.60;;;;;;4895523;29;20111;-68
2021/04/01 06:56:45;;;;;;;63.00;15.68;;;563.50;1587.20;;;;;;4892077;29;20036;-76
2021/04/01 06:59:08;;;;;;;25.27;10.50;;;614.40;1484.80;;;;;;4881311;29;20040;-68
2021/04/01 07:01:43;;;;;;;14.70;8.00;;;589.00;1536.00;;;;;;4910552;29;20032;-69
2021/04/01 07:04:10;;;;;;;15.68;9.10;;;563.90;1536.00;;;;;;4897228;29;20052;-68
2021/04/01 07:06:42;;;;;;;14.13;9.00;;;589.10;1484.80;;;;;;4898365;29;20032;-75
2021/04/01 07:12:09;;;;;;;25.60;10.60;;;563.70;1484.80;;;;;;4898653;29;20039;-77
2021/04/01 07:14:38;;;;;;;19.17;8.27;;;589.60;1459.20;;;;;;4899107;29;20025;-70
2021/04/01 07:47:59;;;;;;;14.52;10.45;;;717.20;1024.00;;;;;;4897792;29;20035;-70
2021/04/01 07:50:25;;;;;;;17.83;13.20;;;717.70;1075.20;;;;;;4898550;29;20060;-69
2021/04/01 07:53:00;;;;;;;9.57;8.27;;;742.60;947.20;;;;;;4897609;29;20490;-77
2021/04/01 08:06:16;;;;;;;17.75;7.85;;;768.00;998.40;;;;;;4891707;29;20046;-82
2021/04/01 08:08:46;;;;;;;15.77;8.00;;;768.20;972.80;;;;;;4897914;29;20017;-72
2021/04/01 08:11:18;;;;;;;11.45;6.75;;;768.80;998.40;;;;;;4897861;29;20016;-81
2021/04/01 08:13:57;;;;;;;14.15;7.18;;;768.30;921.60;;;;;;4896334;29;20033;-71
2021/04/01 08:16:27;;;;;;;12.23;6.55;;;768.50;896.00;;;;;;4897824;29;20036;-79
2021/04/01 08:18:57;;;;;;;12.45;6.75;;;768.90;896.00;;;;;;4897720;29;20039;-81
2021/04/01 08:21:26;;;;;;;13.45;6.40;;;793.60;870.40;;;;;;4899484;29;20024;-77
2021/04/01 08:24:07;;;;;;;8.63;6.30;;;768.70;870.40;;;;;;4896538;29;20029;-79
2021/04/01 08:32:42;;;;;;;8.88;4.78;;;742.60;972.80;;;;;;4897695;29;20131;-83
2021/04/01 08:34:41;;;;;;;8.88;4.78;;;716.80;998.40;;;;;;4898749;29;20054;-75
2021/04/01 08:37:09;;;;;;;9.20;4.50;;;691.50;998.40;;;;;;4896969;29;20031;-79
2021/04/01 08:39:36;;;;;;;10.25;4.95;;;;;;;;;;4897719;29;20475;-74
2021/04/01 08:42:29;;;;;;;12.43;5.22;;;640.20;1100.80;;;;;;4896725;29;20097;-74
2021/04/01 08:45:29;;;;;;;15.25;5.45;;;;;;;;;;4897236;29;20028;-74
2021/04/01 08:48:11;;;;;;;7.15;5.03;;;;;;;;;;4897586;29;20024;-76
2021/04/01 08:50:40;;;;;;;12.35;6.18;;;;;;;;;;4897451;29;20047;-76
2021/04/01 08:53:38;;;;;;;30.55;6.63;;;564.10;1254.40;;;;;;4896056;29;20029;-81
2021/04/01 08:56:30;;;;;;;8.88;5.78;;;563.60;1305.60;;;;;;4896881;29;20032;-77
2021/04/01 08:59:29;;;;;;;10.05;5.70;;;563.40;1331.20;;;;;;4895127;29;20096;-74
2021/04/01 09:01:57;;;;;;;9.93;6.03;;;563.40;1331.20;;;;;;4895588;29;20518;-81
2021/04/01 09:04:32;;;;;;;7.05;5.88;;;563.30;1356.80;;;;;;4894438;29;20526;-78
2021/04/01 09:07:08;;;;;;;9.20;6.03;;;563.40;1382.40;;;;;;4894860;29;20036;-74
2021/04/01 09:09:36;;;;;;;14.40;7.20;;;538.30;1305.60;;;;;;4895185;29;20077;-79
2021/04/01 09:12:31;;;;;;;14.32;6.72;;;563.40;1382.40;;;;;;4894554;29;20102;-77
2021/04/01 09:15:06;;;;;;;14.48;7.28;;;538.40;1408.00;;;;;;4891154;29;20072;-78
2021/04/01 09:17:36;;;;;;;14.30;7.38;;;538.50;1382.40;;;;;;4894994;29;20509;-75
2021/04/01 09:20:12;;;;;;;14.20;7.60;;;;;;;;;;4894406;29;20562;-71
2021/04/01 09:22:51;;;;;;;17.60;7.60;;;538.20;1356.80;;;;;;4894554;29;20058;-73
2021/04/01 09:25:18;;;;;;;12.25;7.63;;;512.80;1382.40;;;;;;4893274;29;20104;-82
2021/04/01 09:27:59;;;;;;;17.00;9.10;;;537.80;1382.40;;;;;;4893587;29;20036;-78
2021/04/01 09:30:25;;;;;;;12.35;8.05;;;538.00;1382.40;;;;;;4894761;29;20037;-73
2021/04/01 09:32:54;;;;;;;11.50;7.97;;;537.90;1356.80;;;;;;4895716;29;20029;-74
2021/04/01 09:35:21;;;;;;;15.65;9.07;;;537.70;1356.80;;;;;;4898217;29;20509;-76
2021/04/01 09:37:58;;;;;;;17.58;9.63;;;537.80;1382.40;;;;;;4900630;29;20027;-70
2021/04/01 09:40:32;;;;;;;13.77;9.25;;;537.80;1433.60;;;;;;4900024;29;20439;-72
2021/04/01 09:43:16;;;;;;;19.88;13.90;;;537.90;1408.00;;;;;;4900369;29;20022;-72
2021/04/01 09:45:44;;;;;;;15.02;9.07;;;537.90;1408.00;;;;;;4899641;29;20167;-75
2021/04/01 09:48:11;;;;;;;10.05;8.18;;;537.90;1408.00;;;;;;4899740;29;20084;-73
2021/04/01 09:50:43;;;;;;;17.52;8.43;;;537.90;1382.40;;;;;;4899961;29;20056;-77
2021/04/01 09:53:19;;;;;;;14.50;8.02;;;538.00;1433.60;;;;;;4900043;29;20024;-81
2021/04/01 09:55:47;;;;;;;15.85;9.30;;;538.00;1433.60;;;;;;4899864;29;20054;-80
2021/04/01 09:58:18;;;;;;;14.85;8.40;;;537.80;1356.80;;;;;;4890463;29;20036;-72
2021/04/01 10:03:32;;;;;;;17.75;7.90;;;537.80;1433.60;;;;;;4900217;29;20033;-74
2021/04/01 10:05:59;;;;;;;12.32;8.02;;;538.00;1459.20;;;;;;4900097;29;20024;-68
2021/04/01 10:08:32;;;;;;;16.38;7.22;;;512.70;1408.00;;;;;;4899196;29;20111;-71
2021/04/01 10:11:25;;;;;;;10.60;7.72;;;512.70;1459.20;;;;;;4899432;29;20479;-70
2021/04/01 10:14:05;;;;;;;29.23;9.25;;;512.80;1459.20;;;;;;4894504;29;20122;-76
2021/04/01 10:16:31;;;;;;;13.90;8.18;;;512.80;1459.20;;;;;;4899937;29;20028;-71
2021/04/01 10:18:58;;;;;;;13.80;8.13;;;512.80;1459.20;;;;;;4899260;29;20034;-76
2021/04/01 10:21:24;;;;;;;18.77;7.68;;;512.60;1433.60;;;;;;4900653;29;20119;-73
2021/04/01 10:24:01;;;;;;;13.05;8.27;;;512.70;1459.20;;;;;;4899646;29;20535;-75
2021/04/01 10:26:38;;;;;;;15.15;8.10;;;512.60;1433.60;;;;;;4899206;29;20032;-74
2021/04/01 10:29:12;;;;;;;13.88;7.85;;;512.50;1408.00;;;;;;4899242;29;20131;-71
2021/04/01 10:31:46;;;;;;;18.90;7.78;;;512.70;1484.80;;;;;;4892766;29;20071;-68
2021/04/01 10:34:27;;;;;;;16.48;8.05;;;512.70;1433.60;;;;;;4899235;29;20056;-71
2021/04/01 10:36:53;;;;;;;11.00;7.70;;;512.80;1433.60;;;;;;4898923;29;20112;-76
2021/04/01 10:39:20;;;;;;;14.18;7.80;;;;;;;;;;4898266;29;20154;-72
2021/04/01 10:41:48;;;;;;;14.00;7.55;;;;;;;;;;4899421;29;20491;-72
2021/04/01 10:44:15;;;;;;;11.23;8.10;;;;;;;;;;4898979;29;20041;-72
2021/04/01 10:47:02;;;;;;;18.23;9.52;;;512.60;1459.20;;;;;;4904985;29;20095;-72
2021/04/01 10:49:29;;;;;;;14.40;8.45;;;512.60;1484.80;;;;;;4898012;29;20029;-70
2021/04/01 10:52:13;;;;;;;14.05;8.63;;;512.80;1484.80;;;;;;4898643;29;20057;-77
2021/04/01 10:54:40;;;;;;;24.30;8.32;;;512.70;1484.80;;;;;;4899426;29;20047;-71
2021/04/01 10:57:08;;;;;;;12.55;8.70;;;512.70;1484.80;;;;;;4898102;29;20028;-71
2021/04/01 10:59:46;;;;;;;12.82;7.80;;;512.70;1433.60;;;;;;4898169;29;20024;-70
2021/04/01 11:02:32;;;;;;;10.45;7.70;;;512.60;1484.80;;;;;;4897362;29;20027;-70
2021/04/01 11:05:13;;;;;;;10.10;7.50;;;512.70;1459.20;;;;;;4895255;29;20085;-71
2021/04/01 11:07:45;;;;;;;12.75;7.55;;;512.80;1459.20;;;;;;4897624;29;20067;-74
2021/04/01 11:10:17;;;;;;;21.45;11.43;;;512.90;1510.40;;;;;;4898025;29;20032;-76
2021/04/01 11:12:49;;;;;;;27.42;10.98;;;512.80;1484.80;;;;;;4896767;29;20111;-75
2021/04/01 11:15:16;;;;;;;18.48;9.57;;;512.80;1510.40;;;;;;4898998;29;20036;-73
2021/04/01 11:17:46;;;;;;;14.48;8.88;;;537.60;1484.80;;;;;;4898366;29;20123;-72
2021/04/01 11:20:14;;;;;;;14.82;9.63;;;537.60;1510.40;;;;;;4897317;29;20024;-79
2021/04/01 11:22:40;;;;;;;14.48;10.40;;;537.60;1484.80;;;;;;4898118;29;20028;-76
2021/04/01 11:25:11;;;;;;;13.75;9.73;;;537.60;1484.80;;;;;;4897978;29;20036;-72
2021/04/01 11:27:49;;;;;;;23.13;9.80;;;537.60;1510.40;;;;;;4897472;29;20033;-75
2021/04/01 11:30:16;;;;;;;17.92;10.18;;;537.60;1484.80;;;;;;4898156;29;20025;-72
2021/04/01 11:32:49;;;;;;;15.80;8.85;;;;;;;;;;4897865;29;20028;-73
2021/04/01 11:35:15;;;;;;;11.20;7.80;;;537.80;1459.20;;;;;;4896525;29;20277;-69
2021/04/01 11:37:46;;;;;;;15.30;8.52;;;537.80;1484.80;;;;;;4897650;29;20056;-71
2021/04/01 11:40:13;;;;;;;15.27;9.00;;;;;;;;;;4898130;29;20029;-72
2021/04/01 11:42:38;;;;;;;14.38;9.85;;;538.00;1484.80;;;;;;4896373;29;20028;-73
2021/04/01 11:45:07;;;;;;;14.85;9.30;;;537.70;1484.80;;;;;;4897840;29;20039;-69
2021/04/01 11:47:39;;;;;;;16.00;9.90;;;537.80;1459.20;;;;;;4898232;29;20068;-70
2021/04/01 11:50:05;;;;;;;15.35;10.00;;;537.90;1433.60;;;;;;4897588;29;20116;-73
2021/04/01 11:52:31;;;;;;;12.07;8.77;;;537.70;1433.60;;;;;;4895839;29;20035;-72
2021/04/01 11:55:11;;;;;;;27.20;10.25;;;537.80;1484.80;;;;;;4898282;29;20032;-76
2021/04/01 11:57:43;;;;;;;57.08;10.13;;;537.70;1459.20;;;;;;4896558;29;20116;-73
2021/04/01 12:06:05;;;;;;;10.82;7.18;;;537.70;1433.60;;;;;;4863321;29;20044;-72
2021/04/01 12:08:31;;;;;;;13.00;7.80;;;537.80;1408.00;;;;;;4857426;29;20033;-72
2021/04/01 12:10:58;;;;;;;32.05;8.43;;;537.90;1459.20;;;;;;4856951;29;20116;-72
2021/04/01 12:13:25;;;;;;;14.55;7.65;;;537.80;1459.20;;;;;;4851745;29;20055;-74
2021/04/01 12:15:51;;;;;;;12.15;7.78;;;537.90;1433.60;;;;;;4853440;29;20045;-75
2021/04/01 12:18:19;;;;;;;15.55;7.22;;;;;;;;;;4857589;29;20053;-74
2021/04/01 12:20:46;;;;;;;13.55;8.27;;;;;;;;;;4864049;29;20029;-70
2021/04/01 12:23:14;;;;;;;21.48;8.55;;;538.30;1433.60;;;;;;4856910;29;20065;-72
2021/04/01 12:25:40;;;;;;;16.55;9.00;;;538.10;1433.60;;;;;;4864990;29;20033;-72
2021/04/01 12:28:06;;;;;;;11.00;8.80;;;538.10;1408.00;;;;;;4862160;29;20036;-73
2021/04/01 12:30:40;;;;;;;14.95;9.13;;;538.20;1459.20;;;;;;4856833;29;20107;-75
2021/04/01 12:33:23;;;;;;;15.65;8.75;;;538.30;1459.20;;;;;;4856558;29;20030;-74
2021/04/01 12:35:49;;;;;;;11.73;7.57;;;538.30;1433.60;;;;;;4862764;29;20503;-69
2021/04/01 12:38:29;;;;;;;9.27;7.10;;;538.40;1408.00;;;;;;4901239;29;20031;-75
2021/04/01 12:40:59;;;;;;;18.02;7.70;;;538.50;1382.40;;;;;;4900189;29;20475;-70
2021/04/01 12:43:36;;;;;;;11.35;8.60;;;538.50;1382.40;;;;;;4895021;29;20024;-71
2021/04/01 12:46:03;;;;;;;12.95;7.65;;;538.40;1382.40;;;;;;4895959;29;20115;-72
2021/04/01 12:48:40;;;;;;;10.52;7.00;;;538.30;1382.40;;;;;;4896315;29;20107;-73
2021/04/01 12:51:08;;;;;;;13.98;7.18;;;538.30;1408.00;;;;;;4894061;29;20039;-75
2021/04/01 12:53:34;;;;;;;18.17;7.55;;;538.30;1382.40;;;;;;4895464;29;20025;-71
2021/04/01 12:56:23;;;;;;;12.07;7.05;;;538.30;1382.40;;;;;;4911236;29;20784;-72
2021/04/01 13:03:51;;;;;;;13.57;7.60;;;538.40;1382.40;;;;;;4896752;29;20037;-74
2021/04/01 13:06:26;;;;;;;15.63;7.72;;;538.40;1408.00;;;;;;4895392;29;20052;-74
2021/04/01 13:08:57;;;;;;;20.25;9.82;;;538.40;1382.40;;;;;;4896890;29;20480;-72
2021/04/01 13:11:24;;;;;;;16.90;8.40;;;538.50;1382.40;;;;;;4895026;29;20041;-72
2021/04/01 13:13:51;;;;;;;19.60;7.88;;;563.20;1433.60;;;;;;4897053;29;20028;-72
2021/04/01 13:16:17;;;;;;;23.38;8.52;;;538.50;1356.80;;;;;;4895963;29;20047;-73
2021/04/01 13:18:43;;;;;;;13.18;7.93;;;538.40;1382.40;;;;;;4896405;29;20041;-73
2021/04/01 13:21:29;;;;;;;14.13;7.82;;;538.30;1356.80;;;;;;4896490;29;20056;-72
2021/04/01 13:26:45;;;;;;;23.08;8.60;;;538.40;1408.00;;;;;;4857104;29;20045;-72
2021/04/01 13:29:11;;;;;;;13.05;8.65;;;538.40;1382.40;;;;;;4857052;29;20041;-72
2021/04/01 13:31:44;;;;;;;14.02;7.95;;;538.40;1382.40;;;;;;4857480;29;20045;-72
2021/04/01 13:36:44;;;;;;;12.55;8.48;;;538.40;1433.60;;;;;;4857304;29;19912;-72
2021/04/01 13:39:12;;;;;;;20.05;8.60;;;538.40;1382.40;;;;;;4860019;29;20551;-73
2021/04/01 13:42:26;;;;;;;14.80;7.85;;;538.40;1408.00;;;;;;4857181;29;20028;-72
2021/04/01 13:44:26;;;;;;;16.08;8.55;;;538.40;1382.40;;;;;;4846444;29;20034;-73
2021/04/01 13:46:51;;;;;;;15.65;7.95;;;538.40;1382.40;;;;;;4857117;29;20036;-72
2021/04/01 13:49:27;;;;;;;28.15;8.38;;;538.50;1356.80;;;;;;4856740;29;20033;-75
2021/04/01 13:52:40;;;;;;;16.85;8.48;;;538.50;1356.80;;;;;;4855638;29;20077;-73
2021/04/01 14:00:30;;;;;;;56.65;9.50;;;538.20;1382.40;;;;;;4850948;29;20105;-72
2021/04/01 14:11:25;;;;;;;16.67;8.15;;;538.20;1382.40;;;;;;4895420;29;20040;-73
2021/04/01 14:13:51;;;;;;;14.68;7.93;;;538.20;1382.40;;;;;;4890165;29;20108;-71
2021/04/01 14:16:18;;;;;;;17.95;7.97;;;538.30;1382.40;;;;;;4894109;29;20032;-70
2021/04/01 14:18:47;;;;;;;13.93;7.88;;;538.30;1382.40;;;;;;4900872;29;20028;-70
2021/04/01 14:21:18;;;;;;;21.10;7.45;;;538.30;1356.80;;;;;;4898908;29;20024;-70
2021/04/01 14:23:45;;;;;;;11.75;8.15;;;538.40;1356.80;;;;;;4899322;29;20024;-69
2021/04/01 14:28:49;;;;;;;28.20;9.18;;;538.50;1382.40;;;;;;4900068;29;20128;-71
2021/04/01 14:31:15;;;;;;;8.68;6.88;;;563.60;1408.00;;;;;;4899541;29;20099;-70
2021/04/01 14:33:43;;;;;;;13.15;7.57;;;538.50;1356.80;;;;;;4899415;29;20516;-70
2021/04/01 14:36:12;;;;;;;16.67;7.72;;;538.40;1356.80;;;;;;4899163;29;20057;-70
2021/04/01 14:38:39;;;;;;;21.80;8.02;;;538.40;1356.80;;;;;;4900621;29;20017;-70
2021/04/01 14:46:04;;;;;;;27.95;8.43;;;538.40;1382.40;;;;;;4898243;29;20071;-70
2021/04/01 14:48:30;;;;;;;16.77;7.75;;;538.40;1382.40;;;;;;4904409;29;20048;-70
2021/04/01 14:50:56;;;;;;;22.52;7.85;;;538.40;1382.40;;;;;;4899378;29;20064;-70
2021/04/01 14:53:43;;;;;;;69.03;9.18;;;538.40;1356.80;;;;;;4898876;29;20182;-70